createdAt,value
2023-05-06T00:00:08.736Z,1013.38
2023-05-06T00:00:39.651Z,1013.37
2023-05-06T00:01:10.546Z,1013.35
2023-05-06T00:01:41.458Z,1013.34
2023-05-06T00:02:12.349Z,1013.33
2023-05-06T00:02:43.343Z,1013.33
2023-05-06T00:03:13.954Z,1013.33
2023-05-06T00:03:44.611Z,1013.32
2023-05-06T00:04:15.552Z,1013.31
2023-05-06T00:04:48.118Z,1013.32
2023-05-06T00:05:16.881Z,1013.31
2023-05-06T00:05:47.382Z,1013.33
2023-05-06T00:06:17.936Z,1013.31
2023-05-06T00:06:48.325Z,1013.31
2023-05-06T00:07:19.221Z,1013.28
2023-05-06T00:07:50.190Z,1013.28
2023-05-06T00:08:21.104Z,1013.27
2023-05-06T00:08:52.001Z,1013.28
2023-05-06T00:09:22.908Z,1013.30
2023-05-06T00:09:53.929Z,1013.28
2023-05-06T00:10:24.368Z,1013.29
2023-05-06T00:10:55.402Z,1013.31
2023-05-06T00:11:25.879Z,1013.31
2023-05-06T00:11:56.898Z,1013.31
2023-05-06T00:12:27.387Z,1013.31
2023-05-06T00:12:57.907Z,1013.30
2023-05-06T00:13:28.300Z,1013.28
2023-05-06T00:13:59.176Z,1013.28
2023-05-06T00:14:30.095Z,1013.28
2023-05-06T00:15:00.982Z,1013.29
2023-05-06T00:15:32.380Z,1013.27
2023-05-06T00:16:02.863Z,1013.26
2023-05-06T00:16:33.329Z,1013.26
2023-05-06T00:17:04.240Z,1013.27
2023-05-06T00:17:35.163Z,1013.26
2023-05-06T00:18:06.158Z,1013.26
2023-05-06T00:18:36.726Z,1013.26
2023-05-06T00:19:07.443Z,1013.25
2023-05-06T00:19:37.870Z,1013.24
2023-05-06T00:20:08.891Z,1013.23
2023-05-06T00:20:39.761Z,1013.22
2023-05-06T00:21:10.654Z,1013.21
2023-05-06T00:21:41.534Z,1013.21
2023-05-06T00:22:12.456Z,1013.21
2023-05-06T00:22:43.351Z,1013.22
2023-05-06T00:23:14.223Z,1013.24
2023-05-06T00:23:45.172Z,1013.23
2023-05-06T00:24:16.353Z,1013.22
2023-05-06T00:24:46.814Z,1013.24
2023-05-06T00:25:17.748Z,1013.23
2023-05-06T00:25:48.688Z,1013.24
2023-05-06T00:26:19.569Z,1013.24
2023-05-06T00:26:50.433Z,1013.23
2023-05-06T00:27:21.458Z,1013.25
2023-05-06T00:27:52.356Z,1013.22
2023-05-06T00:28:23.291Z,1013.23
2023-05-06T00:28:54.253Z,1013.22
2023-05-06T00:29:25.192Z,1013.21
2023-05-06T00:29:56.123Z,1013.21
2023-05-06T00:30:27.073Z,1013.21
2023-05-06T00:30:57.998Z,1013.23
2023-05-06T00:31:28.952Z,1013.21
2023-05-06T00:31:59.876Z,1013.22
2023-05-06T00:32:30.873Z,1013.23
2023-05-06T00:33:01.378Z,1013.24
2023-05-06T00:33:32.312Z,1013.23
2023-05-06T00:34:03.217Z,1013.23
2023-05-06T00:34:34.116Z,1013.22
2023-05-06T00:35:05.510Z,1013.23
2023-05-06T00:35:35.947Z,1013.21
2023-05-06T00:36:07.153Z,1013.21
2023-05-06T00:36:37.663Z,1013.19
2023-05-06T00:37:10.131Z,1013.18
2023-05-06T00:37:39.086Z,1013.16
2023-05-06T00:38:09.989Z,1013.15
2023-05-06T00:38:40.889Z,1013.16
2023-05-06T00:39:11.828Z,1013.17
2023-05-06T00:39:42.691Z,1013.13
2023-05-06T00:40:13.636Z,1013.15
2023-05-06T00:40:44.548Z,1013.13
2023-05-06T00:41:15.436Z,1013.11
2023-05-06T00:41:46.330Z,1013.14
2023-05-06T00:42:17.260Z,1013.13
2023-05-06T00:42:48.501Z,1013.14
2023-05-06T00:43:18.997Z,1013.14
2023-05-06T00:43:49.878Z,1013.13
2023-05-06T00:44:20.821Z,1013.14
2023-05-06T00:44:51.704Z,1013.14
2023-05-06T00:45:22.578Z,1013.15
2023-05-06T00:45:53.691Z,1013.14
2023-05-06T00:46:24.210Z,1013.17
2023-05-06T00:46:54.712Z,1013.16
2023-05-06T00:47:25.580Z,1013.18
2023-05-06T00:47:56.496Z,1013.21
2023-05-06T00:48:27.421Z,1013.20
2023-05-06T00:48:58.460Z,1013.22
2023-05-06T00:49:28.861Z,1013.21
2023-05-06T00:49:59.791Z,1013.22
2023-05-06T00:50:30.669Z,1013.23
2023-05-06T00:51:01.562Z,1013.22
2023-05-06T00:51:32.437Z,1013.22
2023-05-06T00:52:03.309Z,1013.23
2023-05-06T00:52:34.185Z,1013.24
2023-05-06T00:53:05.086Z,1013.22
2023-05-06T00:53:35.991Z,1013.24
2023-05-06T00:54:06.900Z,1013.23
2023-05-06T00:54:37.876Z,1013.23
2023-05-06T00:55:08.988Z,1013.22
2023-05-06T00:55:39.723Z,1013.22
2023-05-06T00:56:10.448Z,1013.19
2023-05-06T00:56:40.845Z,1013.19
2023-05-06T00:57:11.748Z,1013.21
2023-05-06T00:57:42.688Z,1013.18
2023-05-06T00:58:13.681Z,1013.18
2023-05-06T00:58:44.553Z,1013.17
2023-05-06T00:59:15.450Z,1013.14
2023-05-06T00:59:46.602Z,1013.14
2023-05-06T01:00:17.211Z,1013.15
2023-05-06T01:00:47.955Z,1013.13
2023-05-06T01:01:18.551Z,1013.13
2023-05-06T01:01:49.055Z,1013.11
2023-05-06T01:02:20.125Z,1013.14
2023-05-06T01:02:50.850Z,1013.14
2023-05-06T01:03:21.321Z,1013.16
2023-05-06T01:03:52.469Z,1013.18
2023-05-06T01:04:23.105Z,1013.20
2023-05-06T01:04:54.077Z,1013.20
2023-05-06T01:05:24.578Z,1013.19
2023-05-06T01:05:55.493Z,1013.19
2023-05-06T01:06:26.391Z,1013.20
2023-05-06T01:06:57.020Z,1013.23
2023-05-06T01:07:27.960Z,1013.24
2023-05-06T01:07:59.188Z,1013.22
2023-05-06T01:08:29.708Z,1013.20
2023-05-06T01:09:00.092Z,1013.20
2023-05-06T01:09:31.787Z,1013.21
2023-05-06T01:10:01.671Z,1013.20
2023-05-06T01:10:32.578Z,1013.21
2023-05-06T01:11:03.454Z,1013.20
2023-05-06T01:11:34.364Z,1013.18
2023-05-06T01:12:05.248Z,1013.18
2023-05-06T01:12:36.323Z,1013.18
2023-05-06T01:13:06.793Z,1013.19
2023-05-06T01:13:37.842Z,1013.17
2023-05-06T01:14:08.294Z,1013.16
2023-05-06T01:14:39.236Z,1013.12
2023-05-06T01:15:10.318Z,1013.11
2023-05-06T01:15:40.928Z,1013.14
2023-05-06T01:16:11.809Z,1013.12
2023-05-06T01:16:42.719Z,1013.12
2023-05-06T01:17:13.872Z,1013.12
2023-05-06T01:17:44.447Z,1013.09
2023-05-06T01:18:15.400Z,1013.09
2023-05-06T01:18:46.313Z,1013.09
2023-05-06T01:19:17.278Z,1013.08
2023-05-06T01:19:48.157Z,1013.09
2023-05-06T01:20:19.149Z,1013.08
2023-05-06T01:20:49.677Z,1013.07
2023-05-06T01:21:20.330Z,1013.08
2023-05-06T01:21:50.884Z,1013.09
2023-05-06T01:22:21.510Z,1013.10
2023-05-06T01:22:51.894Z,1013.10
2023-05-06T01:23:22.799Z,1013.10
2023-05-06T01:23:53.693Z,1013.11
2023-05-06T01:24:24.213Z,1013.11
2023-05-06T01:24:55.093Z,1013.10
2023-05-06T01:25:28.050Z,1013.10
2023-05-06T01:25:56.969Z,1013.11
2023-05-06T01:26:27.838Z,1013.11
2023-05-06T01:26:58.736Z,1013.11
2023-05-06T01:27:29.630Z,1013.11
2023-05-06T01:28:00.512Z,1013.11
2023-05-06T01:28:31.502Z,1013.11
2023-05-06T01:29:02.512Z,1013.11
2023-05-06T01:29:33.409Z,1013.08
2023-05-06T01:30:04.372Z,1013.09
2023-05-06T01:30:35.231Z,1013.07
2023-05-06T01:31:06.168Z,1013.07
2023-05-06T01:31:36.707Z,1013.07
2023-05-06T01:32:07.130Z,1013.05
2023-05-06T01:32:38.078Z,1013.04
2023-05-06T01:33:08.997Z,1013.05
2023-05-06T01:33:39.983Z,1013.04
2023-05-06T01:34:11.144Z,1013.04
2023-05-06T01:34:41.645Z,1013.03
2023-05-06T01:35:12.933Z,1013.05
2023-05-06T01:35:43.341Z,1013.04
2023-05-06T01:36:14.418Z,1013.02
2023-05-06T01:36:44.795Z,1013.00
2023-05-06T01:37:15.687Z,1012.99
2023-05-06T01:37:46.569Z,1012.98
2023-05-06T01:38:17.439Z,1012.97
2023-05-06T01:38:48.414Z,1012.98
2023-05-06T01:39:19.352Z,1012.99
2023-05-06T01:39:50.294Z,1012.98
2023-05-06T01:40:21.241Z,1012.98
2023-05-06T01:40:52.275Z,1012.96
2023-05-06T01:41:22.695Z,1012.96
2023-05-06T01:41:53.584Z,1012.96
2023-05-06T01:42:24.519Z,1012.95
2023-05-06T01:42:55.411Z,1012.95
2023-05-06T01:43:26.318Z,1012.94
2023-05-06T01:43:57.215Z,1012.92
2023-05-06T01:44:28.162Z,1012.92
2023-05-06T01:44:59.104Z,1012.91
2023-05-06T01:45:29.993Z,1012.94
2023-05-06T01:46:01.018Z,1012.95
2023-05-06T01:46:31.492Z,1012.94
2023-05-06T01:47:02.425Z,1012.95
2023-05-06T01:47:33.332Z,1012.96
2023-05-06T01:48:04.316Z,1012.98
2023-05-06T01:48:34.774Z,1012.95
2023-05-06T01:49:05.703Z,1012.98
2023-05-06T01:49:36.608Z,1012.97
2023-05-06T01:50:07.474Z,1012.98
2023-05-06T01:50:38.470Z,1013.00
2023-05-06T01:51:08.944Z,1012.99
2023-05-06T01:51:39.884Z,1013.00
2023-05-06T01:52:10.837Z,1012.99
2023-05-06T01:52:41.763Z,1012.97
2023-05-06T01:53:12.731Z,1012.96
2023-05-06T01:53:43.612Z,1012.96
2023-05-06T01:54:14.542Z,1012.94
2023-05-06T01:54:45.419Z,1012.96
2023-05-06T01:55:16.321Z,1012.97
2023-05-06T01:55:47.244Z,1012.98
2023-05-06T01:56:18.150Z,1012.99
2023-05-06T01:56:49.067Z,1013.00
2023-05-06T01:57:20.019Z,1013.00
2023-05-06T01:57:50.950Z,1013.01
2023-05-06T01:58:21.986Z,1013.02
2023-05-06T01:58:52.408Z,1013.01
2023-05-06T01:59:23.361Z,1013.03
2023-05-06T01:59:54.406Z,1013.03
2023-05-06T02:00:24.837Z,1013.02
2023-05-06T02:00:55.804Z,1013.01
2023-05-06T02:01:26.773Z,1013.02
2023-05-06T02:01:57.349Z,1013.03
2023-05-06T02:02:27.826Z,1013.01
2023-05-06T02:02:58.875Z,1013.04
2023-05-06T02:03:29.433Z,1013.05
2023-05-06T02:04:00.438Z,1013.07
2023-05-06T02:04:30.787Z,1013.06
2023-05-06T02:05:01.821Z,1013.09
2023-05-06T02:05:32.252Z,1013.10
2023-05-06T02:06:03.278Z,1013.09
2023-05-06T02:06:33.763Z,1013.10
2023-05-06T02:07:04.643Z,1013.11
2023-05-06T02:07:35.535Z,1013.12
2023-05-06T02:08:06.434Z,1013.12
2023-05-06T02:08:37.310Z,1013.16
2023-05-06T02:09:08.196Z,1013.13
2023-05-06T02:09:39.430Z,1013.15
2023-05-06T02:10:09.994Z,1013.15
2023-05-06T02:10:41.122Z,1013.16
2023-05-06T02:11:11.599Z,1013.16
2023-05-06T02:11:42.764Z,1013.17
2023-05-06T02:12:13.190Z,1013.18
2023-05-06T02:12:44.339Z,1013.19
2023-05-06T02:13:14.649Z,1013.19
2023-05-06T02:13:45.171Z,1013.20
2023-05-06T02:14:16.087Z,1013.21
2023-05-06T02:14:46.970Z,1013.22
2023-05-06T02:15:17.969Z,1013.21
2023-05-06T02:15:48.884Z,1013.20
2023-05-06T02:16:19.883Z,1013.22
2023-05-06T02:16:50.380Z,1013.25
2023-05-06T02:17:21.312Z,1013.25
2023-05-06T02:17:52.280Z,1013.27
2023-05-06T02:18:23.225Z,1013.26
2023-05-06T02:18:54.196Z,1013.27
2023-05-06T02:19:25.076Z,1013.31
2023-05-06T02:19:55.963Z,1013.29
2023-05-06T02:20:26.840Z,1013.29
2023-05-06T02:20:57.720Z,1013.28
2023-05-06T02:21:28.608Z,1013.28
2023-05-06T02:21:59.477Z,1013.28
2023-05-06T02:22:30.637Z,1013.29
2023-05-06T02:23:01.145Z,1013.30
2023-05-06T02:23:32.299Z,1013.32
2023-05-06T02:24:02.792Z,1013.31
2023-05-06T02:24:33.998Z,1013.31
2023-05-06T02:25:04.514Z,1013.32
2023-05-06T02:25:35.387Z,1013.30
2023-05-06T02:26:06.300Z,1013.30
2023-05-06T02:26:37.223Z,1013.30
2023-05-06T02:27:08.124Z,1013.31
2023-05-06T02:27:39.056Z,1013.30
2023-05-06T02:28:10.084Z,1013.28
2023-05-06T02:28:41.237Z,1013.29
2023-05-06T02:29:11.932Z,1013.29
2023-05-06T02:29:42.628Z,1013.29
2023-05-06T02:30:13.132Z,1013.29
2023-05-06T02:30:43.619Z,1013.31
2023-05-06T02:31:14.671Z,1013.30
2023-05-06T02:31:45.306Z,1013.27
2023-05-06T02:32:15.691Z,1013.27
2023-05-06T02:32:46.634Z,1013.27
2023-05-06T02:33:17.562Z,1013.26
2023-05-06T02:33:48.572Z,1013.25
2023-05-06T02:34:19.505Z,1013.24
2023-05-06T02:34:50.423Z,1013.21
2023-05-06T02:35:21.360Z,1013.22
2023-05-06T02:35:52.297Z,1013.22
2023-05-06T02:36:23.289Z,1013.22
2023-05-06T02:36:53.739Z,1013.22
2023-05-06T02:37:24.745Z,1013.19
2023-05-06T02:37:55.623Z,1013.18
2023-05-06T02:38:26.533Z,1013.17
2023-05-06T02:38:57.441Z,1013.16
2023-05-06T02:39:28.357Z,1013.15
2023-05-06T02:39:59.235Z,1013.14
2023-05-06T02:40:30.102Z,1013.12
2023-05-06T02:41:01.047Z,1013.13
2023-05-06T02:41:32.007Z,1013.12
2023-05-06T02:42:02.866Z,1013.11
2023-05-06T02:42:33.871Z,1013.10
2023-05-06T02:43:04.397Z,1013.09
2023-05-06T02:43:34.914Z,1013.09
2023-05-06T02:44:05.412Z,1013.10
2023-05-06T02:44:35.800Z,1013.08
2023-05-06T02:45:06.721Z,1013.09
2023-05-06T02:45:37.676Z,1013.07
2023-05-06T02:46:08.760Z,1013.07
2023-05-06T02:46:39.197Z,1013.06
2023-05-06T02:47:10.078Z,1013.07
2023-05-06T02:47:41.068Z,1013.03
2023-05-06T02:48:11.586Z,1013.03
2023-05-06T02:48:42.524Z,1013.04
2023-05-06T02:49:13.467Z,1013.03
2023-05-06T02:49:44.458Z,1013.02
2023-05-06T02:50:15.380Z,1013.01
2023-05-06T02:50:46.268Z,1013.00
2023-05-06T02:51:17.208Z,1012.99
2023-05-06T02:51:48.092Z,1012.97
2023-05-06T02:52:18.964Z,1012.94
2023-05-06T02:52:49.853Z,1012.95
2023-05-06T02:53:20.739Z,1012.95
2023-05-06T02:53:51.744Z,1012.93
2023-05-06T02:54:22.630Z,1012.91
2023-05-06T02:54:53.529Z,1012.90
2023-05-06T02:55:24.494Z,1012.90
2023-05-06T02:55:55.507Z,1012.88
2023-05-06T02:56:25.934Z,1012.87
2023-05-06T02:56:56.803Z,1012.87
2023-05-06T02:57:27.724Z,1012.85
2023-05-06T02:57:58.606Z,1012.85
2023-05-06T02:58:29.510Z,1012.85
2023-05-06T02:59:00.383Z,1012.84
2023-05-06T02:59:31.251Z,1012.84
2023-05-06T03:00:02.114Z,1012.82
2023-05-06T03:00:33.091Z,1012.80
2023-05-06T03:01:04.123Z,1012.81
2023-05-06T03:01:34.758Z,1012.80
2023-05-06T03:02:05.413Z,1012.81
2023-05-06T03:02:36.356Z,1012.79
2023-05-06T03:03:07.276Z,1012.81
2023-05-06T03:03:37.779Z,1012.82
2023-05-06T03:04:08.760Z,1012.82
2023-05-06T03:04:39.264Z,1012.81
2023-05-06T03:05:09.908Z,1012.82
2023-05-06T03:05:40.750Z,1012.83
2023-05-06T03:06:11.635Z,1012.85
2023-05-06T03:06:42.564Z,1012.85
2023-05-06T03:07:13.550Z,1012.87
2023-05-06T03:07:44.514Z,1012.87
2023-05-06T03:08:15.458Z,1012.88
2023-05-06T03:08:46.540Z,1012.87
2023-05-06T03:09:16.956Z,1012.87
2023-05-06T03:09:47.895Z,1012.89
2023-05-06T03:10:18.808Z,1012.90
2023-05-06T03:10:49.732Z,1012.89
2023-05-06T03:11:20.612Z,1012.91
2023-05-06T03:11:51.465Z,1012.90
2023-05-06T03:12:22.472Z,1012.90
2023-05-06T03:12:53.213Z,1012.90
2023-05-06T03:13:23.770Z,1012.92
2023-05-06T03:13:54.456Z,1012.92
2023-05-06T03:14:24.959Z,1012.91
2023-05-06T03:14:56.173Z,1012.91
2023-05-06T03:15:26.680Z,1012.90
2023-05-06T03:15:57.563Z,1012.93
2023-05-06T03:16:28.545Z,1012.94
2023-05-06T03:16:59.310Z,1012.94
2023-05-06T03:17:29.970Z,1012.94
2023-05-06T03:18:00.934Z,1012.92
2023-05-06T03:18:31.958Z,1012.95
2023-05-06T03:19:02.475Z,1012.94
2023-05-06T03:19:32.980Z,1012.95
2023-05-06T03:20:03.906Z,1012.95
2023-05-06T03:20:34.925Z,1012.94
2023-05-06T03:21:05.463Z,1012.94
2023-05-06T03:21:36.007Z,1012.90
2023-05-06T03:22:06.561Z,1012.89
2023-05-06T03:22:37.441Z,1012.89
2023-05-06T03:23:08.332Z,1012.89
2023-05-06T03:23:39.270Z,1012.89
2023-05-06T03:24:10.161Z,1012.89
2023-05-06T03:24:41.079Z,1012.89
2023-05-06T03:25:12.194Z,1012.89
2023-05-06T03:25:42.839Z,1012.88
2023-05-06T03:26:13.807Z,1012.89
2023-05-06T03:26:44.768Z,1012.90
2023-05-06T03:27:15.737Z,1012.89
2023-05-06T03:27:46.661Z,1012.89
2023-05-06T03:28:17.677Z,1012.90
2023-05-06T03:28:48.049Z,1012.92
2023-05-06T03:29:18.958Z,1012.91
2023-05-06T03:29:49.846Z,1012.93
2023-05-06T03:30:20.764Z,1012.94
2023-05-06T03:30:51.670Z,1012.94
2023-05-06T03:31:22.520Z,1012.95
2023-05-06T03:31:53.459Z,1012.96
2023-05-06T03:32:24.954Z,1012.98
2023-05-06T03:32:55.141Z,1012.98
2023-05-06T03:33:25.627Z,1012.96
2023-05-06T03:33:56.554Z,1012.96
2023-05-06T03:34:27.480Z,1012.94
2023-05-06T03:34:58.365Z,1012.95
2023-05-06T03:35:29.273Z,1012.95
2023-05-06T03:36:00.165Z,1012.96
2023-05-06T03:36:31.071Z,1012.97
2023-05-06T03:37:01.955Z,1012.96
2023-05-06T03:37:32.833Z,1012.96
2023-05-06T03:38:03.818Z,1012.97
2023-05-06T03:38:34.362Z,1012.96
2023-05-06T03:39:05.303Z,1012.96
2023-05-06T03:39:36.267Z,1012.96
2023-05-06T03:40:07.240Z,1012.95
2023-05-06T03:40:38.148Z,1012.94
2023-05-06T03:41:08.996Z,1012.95
2023-05-06T03:41:39.841Z,1012.95
2023-05-06T03:42:10.698Z,1012.95
2023-05-06T03:42:41.550Z,1012.97
2023-05-06T03:43:12.381Z,1012.96
2023-05-06T03:43:43.251Z,1012.98
2023-05-06T03:44:14.087Z,1012.97
2023-05-06T03:44:45.013Z,1012.98
2023-05-06T03:45:15.841Z,1012.99
2023-05-06T03:45:46.880Z,1012.99
2023-05-06T03:46:17.325Z,1012.98
2023-05-06T03:46:47.839Z,1013.01
2023-05-06T03:47:18.710Z,1013.01
2023-05-06T03:47:49.650Z,1012.99
2023-05-06T03:48:20.508Z,1013.01
2023-05-06T03:48:51.349Z,1013.01
2023-05-06T03:49:22.264Z,1013.01
2023-05-06T03:49:53.091Z,1012.99
2023-05-06T03:50:24.041Z,1012.99
2023-05-06T03:50:55.007Z,1012.98
2023-05-06T03:51:25.928Z,1012.96
2023-05-06T03:51:56.796Z,1012.97
2023-05-06T03:52:27.673Z,1012.96
2023-05-06T03:52:58.552Z,1012.95
2023-05-06T03:53:29.366Z,1012.94
2023-05-06T03:54:00.197Z,1012.95
2023-05-06T03:54:31.082Z,1012.94
2023-05-06T03:55:01.960Z,1012.95
2023-05-06T03:55:32.781Z,1012.96
2023-05-06T03:56:03.649Z,1012.96
2023-05-06T03:56:34.563Z,1012.98
2023-05-06T03:57:05.556Z,1012.99
2023-05-06T03:57:36.055Z,1012.99
2023-05-06T03:58:06.929Z,1012.97
2023-05-06T03:58:37.820Z,1012.98
2023-05-06T03:59:08.761Z,1012.99
2023-05-06T03:59:39.598Z,1012.97
2023-05-06T04:00:10.443Z,1012.98
2023-05-06T04:00:41.296Z,1012.98
2023-05-06T04:01:12.150Z,1012.98
2023-05-06T04:01:43.154Z,1012.99
2023-05-06T04:02:14.008Z,1012.98
2023-05-06T04:02:44.903Z,1012.97
2023-05-06T04:03:15.990Z,1012.97
2023-05-06T04:03:46.800Z,1012.98
2023-05-06T04:04:17.271Z,1012.98
2023-05-06T04:04:48.213Z,1012.99
2023-05-06T04:05:19.192Z,1013.00
2023-05-06T04:05:50.023Z,1012.98
2023-05-06T04:06:20.856Z,1012.99
2023-05-06T04:06:51.821Z,1012.98
2023-05-06T04:07:22.733Z,1012.98
2023-05-06T04:07:53.587Z,1012.98
2023-05-06T04:08:24.408Z,1012.99
2023-05-06T04:08:55.292Z,1012.99
2023-05-06T04:09:26.171Z,1012.97
2023-05-06T04:09:57.142Z,1012.98
2023-05-06T04:10:28.044Z,1012.99
2023-05-06T04:10:58.950Z,1013.00
2023-05-06T04:11:30.022Z,1012.98
2023-05-06T04:12:00.365Z,1012.99
2023-05-06T04:12:31.206Z,1012.97
2023-05-06T04:13:02.150Z,1012.98
2023-05-06T04:13:33.028Z,1012.98
2023-05-06T04:14:03.839Z,1012.98
2023-05-06T04:14:34.713Z,1012.99
2023-05-06T04:15:05.565Z,1012.99
2023-05-06T04:15:36.468Z,1012.99
2023-05-06T04:16:07.370Z,1013.00
2023-05-06T04:16:38.408Z,1012.98
2023-05-06T04:17:08.950Z,1012.98
2023-05-06T04:17:39.845Z,1012.99
2023-05-06T04:18:10.716Z,1012.97
2023-05-06T04:18:41.664Z,1013.00
2023-05-06T04:19:12.477Z,1012.99
2023-05-06T04:19:43.389Z,1013.00
2023-05-06T04:20:14.244Z,1013.00
2023-05-06T04:20:45.116Z,1013.01
2023-05-06T04:21:16.011Z,1012.99
2023-05-06T04:21:46.984Z,1013.00
2023-05-06T04:22:18.017Z,1013.00
2023-05-06T04:22:48.472Z,1013.01
2023-05-06T04:23:19.369Z,1013.02
2023-05-06T04:23:50.248Z,1013.03
2023-05-06T04:24:21.069Z,1013.02
2023-05-06T04:24:51.932Z,1013.02
2023-05-06T04:25:22.779Z,1013.03
2023-05-06T04:25:53.607Z,1013.00
2023-05-06T04:26:24.516Z,1013.01
2023-05-06T04:26:55.358Z,1013.02
2023-05-06T04:27:26.191Z,1013.03
2023-05-06T04:27:57.061Z,1013.04
2023-05-06T04:28:27.896Z,1013.03
2023-05-06T04:28:58.786Z,1013.04
2023-05-06T04:29:29.876Z,1013.06
2023-05-06T04:30:00.339Z,1013.07
2023-05-06T04:30:31.172Z,1013.10
2023-05-06T04:31:02.042Z,1013.14
2023-05-06T04:31:32.942Z,1013.12
2023-05-06T04:32:03.919Z,1013.14
2023-05-06T04:32:34.843Z,1013.13
2023-05-06T04:33:05.809Z,1013.11
2023-05-06T04:33:36.684Z,1013.12
2023-05-06T04:34:07.686Z,1013.09
2023-05-06T04:34:38.080Z,1013.09
2023-05-06T04:35:09.301Z,1013.08
2023-05-06T04:35:40.016Z,1013.07
2023-05-06T04:36:11.000Z,1013.07
2023-05-06T04:36:41.851Z,1013.10
2023-05-06T04:37:12.690Z,1013.10
2023-05-06T04:37:43.701Z,1013.09
2023-05-06T04:38:14.074Z,1013.11
2023-05-06T04:38:44.952Z,1013.14
2023-05-06T04:39:15.800Z,1013.17
2023-05-06T04:39:46.692Z,1013.17
2023-05-06T04:40:17.560Z,1013.16
2023-05-06T04:40:48.555Z,1013.18
2023-05-06T04:41:19.456Z,1013.20
2023-05-06T04:41:50.428Z,1013.19
2023-05-06T04:42:21.307Z,1013.20
2023-05-06T04:42:52.158Z,1013.21
2023-05-06T04:43:23.088Z,1013.21
2023-05-06T04:43:53.924Z,1013.21
2023-05-06T04:44:24.812Z,1013.23
2023-05-06T04:44:55.670Z,1013.25
2023-05-06T04:45:26.700Z,1013.25
2023-05-06T04:45:57.129Z,1013.27
2023-05-06T04:46:27.952Z,1013.31
2023-05-06T04:46:58.829Z,1013.34
2023-05-06T04:47:29.838Z,1013.36
2023-05-06T04:48:00.322Z,1013.38
2023-05-06T04:48:31.281Z,1013.40
2023-05-06T04:49:02.117Z,1013.41
2023-05-06T04:49:33.084Z,1013.41
2023-05-06T04:50:03.490Z,1013.43
2023-05-06T04:50:34.389Z,1013.46
2023-05-06T04:51:05.290Z,1013.45
2023-05-06T04:51:36.118Z,1013.46
2023-05-06T04:52:07.204Z,1013.48
2023-05-06T04:52:37.678Z,1013.48
2023-05-06T04:53:08.794Z,1013.49
2023-05-06T04:53:39.237Z,1013.50
2023-05-06T04:54:10.079Z,1013.50
2023-05-06T04:54:41.780Z,1013.51
2023-05-06T04:55:12.185Z,1013.51
2023-05-06T04:55:42.694Z,1013.53
2023-05-06T04:56:13.516Z,1013.54
2023-05-06T04:56:44.455Z,1013.55
2023-05-06T04:57:15.349Z,1013.55
2023-05-06T04:57:46.168Z,1013.56
2023-05-06T04:58:16.992Z,1013.54
2023-05-06T04:58:47.870Z,1013.55
2023-05-06T04:59:18.736Z,1013.53
2023-05-06T04:59:49.763Z,1013.52
2023-05-06T05:00:20.182Z,1013.52
2023-05-06T05:00:51.110Z,1013.53
2023-05-06T05:01:22.105Z,1013.53
2023-05-06T05:01:52.457Z,1013.52
2023-05-06T05:02:23.395Z,1013.52
2023-05-06T05:02:54.310Z,1013.54
2023-05-06T05:03:25.679Z,1013.54
2023-05-06T05:03:55.822Z,1013.54
2023-05-06T05:04:26.666Z,1013.53
2023-05-06T05:04:57.647Z,1013.52
2023-05-06T05:05:28.519Z,1013.51
2023-05-06T05:05:59.509Z,1013.50
2023-05-06T05:06:30.456Z,1013.49
2023-05-06T05:07:01.430Z,1013.49
2023-05-06T05:07:32.317Z,1013.48
2023-05-06T05:08:03.152Z,1013.49
2023-05-06T05:08:33.983Z,1013.49
2023-05-06T05:09:04.832Z,1013.51
2023-05-06T05:09:35.706Z,1013.49
2023-05-06T05:10:06.554Z,1013.49
2023-05-06T05:10:37.414Z,1013.50
2023-05-06T05:11:08.325Z,1013.51
2023-05-06T05:11:39.178Z,1013.50
2023-05-06T05:12:10.079Z,1013.50
2023-05-06T05:12:41.269Z,1013.48
2023-05-06T05:13:11.806Z,1013.45
2023-05-06T05:13:42.220Z,1013.48
2023-05-06T05:14:13.044Z,1013.48
2023-05-06T05:14:43.893Z,1013.48
2023-05-06T05:15:14.886Z,1013.44
2023-05-06T05:15:45.242Z,1013.46
2023-05-06T05:16:16.073Z,1013.48
2023-05-06T05:16:46.967Z,1013.48
2023-05-06T05:17:17.889Z,1013.48
2023-05-06T05:17:48.812Z,1013.48
2023-05-06T05:18:19.893Z,1013.48
2023-05-06T05:18:50.353Z,1013.49
2023-05-06T05:19:21.476Z,1013.49
2023-05-06T05:19:51.913Z,1013.49
2023-05-06T05:20:22.881Z,1013.50
2023-05-06T05:20:53.337Z,1013.51
2023-05-06T05:21:24.246Z,1013.51
2023-05-06T05:21:55.137Z,1013.52
2023-05-06T05:22:25.986Z,1013.52
2023-05-06T05:22:56.862Z,1013.53
2023-05-06T05:23:28.077Z,1013.53
2023-05-06T05:23:58.464Z,1013.53
2023-05-06T05:24:29.310Z,1013.53
2023-05-06T05:25:00.247Z,1013.54
2023-05-06T05:25:31.137Z,1013.56
2023-05-06T05:26:02.054Z,1013.56
2023-05-06T05:26:32.948Z,1013.58
2023-05-06T05:27:03.773Z,1013.59
2023-05-06T05:27:34.598Z,1013.59
2023-05-06T05:28:05.435Z,1013.62
2023-05-06T05:28:36.338Z,1013.62
2023-05-06T05:29:07.283Z,1013.61
2023-05-06T05:29:38.112Z,1013.60
2023-05-06T05:30:09.012Z,1013.62
2023-05-06T05:30:40.159Z,1013.63
2023-05-06T05:31:10.798Z,1013.61
2023-05-06T05:31:42.028Z,1013.62
2023-05-06T05:32:12.170Z,1013.62
2023-05-06T05:32:43.324Z,1013.65
2023-05-06T05:33:13.864Z,1013.67
2023-05-06T05:33:44.318Z,1013.65
2023-05-06T05:34:15.205Z,1013.64
2023-05-06T05:34:46.061Z,1013.66
2023-05-06T05:35:16.882Z,1013.69
2023-05-06T05:35:47.838Z,1013.71
2023-05-06T05:36:18.697Z,1013.70
2023-05-06T05:36:49.543Z,1013.71
2023-05-06T05:37:20.474Z,1013.74
2023-05-06T05:37:51.363Z,1013.73
2023-05-06T05:38:22.499Z,1013.74
2023-05-06T05:38:52.888Z,1013.74
2023-05-06T05:39:23.873Z,1013.76
2023-05-06T05:39:54.708Z,1013.78
2023-05-06T05:40:25.560Z,1013.79
2023-05-06T05:40:56.422Z,1013.80
2023-05-06T05:41:27.244Z,1013.79
2023-05-06T05:41:58.066Z,1013.81
2023-05-06T05:42:28.950Z,1013.82
2023-05-06T05:42:59.798Z,1013.80
2023-05-06T05:43:30.704Z,1013.80
2023-05-06T05:44:01.624Z,1013.81
2023-05-06T05:44:32.986Z,1013.81
2023-05-06T05:45:03.433Z,1013.82
2023-05-06T05:45:34.260Z,1013.82
2023-05-06T05:46:05.140Z,1013.80
2023-05-06T05:46:36.137Z,1013.80
2023-05-06T05:47:07.019Z,1013.81
2023-05-06T05:47:37.879Z,1013.81
2023-05-06T05:48:08.785Z,1013.80
2023-05-06T05:48:39.843Z,1013.80
2023-05-06T05:49:10.164Z,1013.81
2023-05-06T05:49:41.122Z,1013.81
2023-05-06T05:50:12.228Z,1013.81
2023-05-06T05:50:42.676Z,1013.82
2023-05-06T05:51:13.541Z,1013.84
2023-05-06T05:51:44.534Z,1013.85
2023-05-06T05:52:15.378Z,1013.84
2023-05-06T05:52:46.194Z,1013.83
2023-05-06T05:53:17.034Z,1013.85
2023-05-06T05:53:47.852Z,1013.85
2023-05-06T05:54:18.686Z,1013.84
2023-05-06T05:54:49.520Z,1013.84
2023-05-06T05:55:20.352Z,1013.84
2023-05-06T05:55:51.243Z,1013.85
2023-05-06T05:56:22.142Z,1013.84
2023-05-06T05:56:53.062Z,1013.86
2023-05-06T05:57:23.999Z,1013.85
2023-05-06T05:57:54.828Z,1013.85
2023-05-06T05:58:25.684Z,1013.83
2023-05-06T05:58:56.551Z,1013.83
2023-05-06T05:59:27.360Z,1013.82
2023-05-06T05:59:58.193Z,1013.83
2023-05-06T06:00:29.026Z,1013.84
2023-05-06T06:00:59.927Z,1013.83
2023-05-06T06:01:30.758Z,1013.83
2023-05-06T06:02:01.604Z,1013.82
2023-05-06T06:02:32.609Z,1013.82
2023-05-06T06:03:03.173Z,1013.80
2023-05-06T06:03:33.918Z,1013.80
2023-05-06T06:04:04.757Z,1013.82
2023-05-06T06:04:35.314Z,1013.82
2023-05-06T06:05:06.249Z,1013.81
2023-05-06T06:05:37.107Z,1013.80
2023-05-06T06:06:07.957Z,1013.83
2023-05-06T06:06:38.899Z,1013.84
2023-05-06T06:07:09.763Z,1013.83
2023-05-06T06:07:40.596Z,1013.83
2023-05-06T06:08:11.486Z,1013.83
2023-05-06T06:08:42.333Z,1013.84
2023-05-06T06:09:13.731Z,1013.83
2023-05-06T06:09:44.177Z,1013.85
2023-05-06T06:10:15.068Z,1013.85
2023-05-06T06:10:45.877Z,1013.87
2023-05-06T06:11:16.719Z,1013.85
2023-05-06T06:11:47.546Z,1013.86
2023-05-06T06:12:18.441Z,1013.87
2023-05-06T06:12:49.343Z,1013.88